sensor_id;sensor_type;location;lat;lon;timestamp;P1;durP1;ratioP1;P2;durP2;ratioP2
19024;SDS011;9645;51.448;6.260;2023-02-24T00:01:37;18.85;;;2.40;;
19024;SDS011;9645;51.448;6.260;2023-02-24T00:04:05;14.63;;;2.45;;
19024;SDS011;9645;51.448;6.260;2023-02-24T00:06:34;8.30;;;2.13;;
19024;SDS011;9645;51.448;6.260;2023-02-24T00:09:04;25.35;;;2.60;;
19024;SDS011;9645;51.448;6.260;2023-02-24T00:11:33;11.18;;;2.10;;
19024;SDS011;9645;51.448;6.260;2023-02-24T00:14:03;16.70;;;1.92;;
19024;SDS011;9645;51.448;6.260;2023-02-24T00:16:31;14.95;;;2.45;;
19024;SDS011;9645;51.448;6.260;2023-02-24T00:19:00;9.85;;;2.28;;
19024;SDS011;9645;51.448;6.260;2023-02-24T00:21:27;12.48;;;1.90;;
19024;SDS011;9645;51.448;6.260;2023-02-24T00:23:55;9.60;;;2.58;;
19024;SDS011;9645;51.448;6.260;2023-02-24T00:26:23;16.27;;;2.63;;
19024;SDS011;9645;51.448;6.260;2023-02-24T00:28:53;20.92;;;3.40;;
19024;SDS011;9645;51.448;6.260;2023-02-24T00:31:20;21.52;;;2.30;;
19024;SDS011;9645;51.448;6.260;2023-02-24T00:33:48;25.27;;;2.85;;
19024;SDS011;9645;51.448;6.260;2023-02-24T00:36:17;18.20;;;3.30;;
19024;SDS011;9645;51.448;6.260;2023-02-24T00:38:48;18.08;;;3.65;;
19024;SDS011;9645;51.448;6.260;2023-02-24T00:41:19;16.27;;;3.78;;
19024;SDS011;9645;51.448;6.260;2023-02-24T00:43:48;26.23;;;3.08;;
19024;SDS011;9645;51.448;6.260;2023-02-24T00:46:15;25.55;;;3.70;;
19024;SDS011;9645;51.448;6.260;2023-02-24T00:48:44;12.73;;;3.22;;
19024;SDS011;9645;51.448;6.260;2023-02-24T00:51:12;24.67;;;3.20;;
19024;SDS011;9645;51.448;6.260;2023-02-24T00:53:43;20.40;;;3.95;;
19024;SDS011;9645;51.448;6.260;2023-02-24T00:56:10;20.98;;;3.65;;
19024;SDS011;9645;51.448;6.260;2023-02-24T00:58:37;15.55;;;3.72;;
19024;SDS011;9645;51.448;6.260;2023-02-24T01:01:10;30.67;;;3.83;;
19024;SDS011;9645;51.448;6.260;2023-02-24T01:03:38;21.27;;;3.40;;
19024;SDS011;9645;51.448;6.260;2023-02-24T01:06:06;15.05;;;3.53;;
19024;SDS011;9645;51.448;6.260;2023-02-24T01:08:33;27.83;;;3.88;;
19024;SDS011;9645;51.448;6.260;2023-02-24T01:11:08;22.30;;;4.25;;
19024;SDS011;9645;51.448;6.260;2023-02-24T01:13:52;18.00;;;4.07;;
19024;SDS011;9645;51.448;6.260;2023-02-24T01:16:19;43.55;;;3.95;;
19024;SDS011;9645;51.448;6.260;2023-02-24T01:18:46;19.27;;;3.38;;
19024;SDS011;9645;51.448;6.260;2023-02-24T01:21:14;18.00;;;3.35;;
19024;SDS011;9645;51.448;6.260;2023-02-24T01:23:42;19.58;;;3.60;;
19024;SDS011;9645;51.448;6.260;2023-02-24T01:26:13;17.95;;;3.88;;
19024;SDS011;9645;51.448;6.260;2023-02-24T01:28:40;16.63;;;3.50;;
19024;SDS011;9645;51.448;6.260;2023-02-24T01:31:07;21.60;;;3.80;;
19024;SDS011;9645;51.448;6.260;2023-02-24T01:33:35;24.17;;;3.60;;
19024;SDS011;9645;51.448;6.260;2023-02-24T01:36:07;12.60;;;3.85;;
19024;SDS011;9645;51.448;6.260;2023-02-24T01:38:35;33.15;;;4.22;;
19024;SDS011;9645;51.448;6.260;2023-02-24T01:41:03;26.17;;;3.90;;
19024;SDS011;9645;51.448;6.260;2023-02-24T01:43:33;19.13;;;3.50;;
19024;SDS011;9645;51.448;6.260;2023-02-24T01:46:15;37.13;;;4.97;;
19024;SDS011;9645;51.448;6.260;2023-02-24T01:48:42;27.23;;;4.53;;
19024;SDS011;9645;51.448;6.260;2023-02-24T01:51:09;19.60;;;4.00;;
19024;SDS011;9645;51.448;6.260;2023-02-24T01:53:36;17.33;;;4.78;;
19024;SDS011;9645;51.448;6.260;2023-02-24T01:56:03;12.68;;;3.80;;
19024;SDS011;9645;51.448;6.260;2023-02-24T01:58:32;16.85;;;4.15;;
19024;SDS011;9645;51.448;6.260;2023-02-24T02:01:01;31.17;;;4.78;;
19024;SDS011;9645;51.448;6.260;2023-02-24T02:03:33;26.00;;;4.07;;
19024;SDS011;9645;51.448;6.260;2023-02-24T02:06:02;17.48;;;4.28;;
19024;SDS011;9645;51.448;6.260;2023-02-24T02:08:31;38.17;;;4.75;;
19024;SDS011;9645;51.448;6.260;2023-02-24T02:11:02;29.75;;;5.40;;
19024;SDS011;9645;51.448;6.260;2023-02-24T02:13:33;20.67;;;4.70;;
19024;SDS011;9645;51.448;6.260;2023-02-24T02:16:05;19.20;;;4.78;;
19024;SDS011;9645;51.448;6.260;2023-02-24T02:19:09;25.00;;;4.90;;
19024;SDS011;9645;51.448;6.260;2023-02-24T02:22:00;19.52;;;4.88;;
19024;SDS011;9645;51.448;6.260;2023-02-24T02:24:36;15.05;;;3.70;;
19024;SDS011;9645;51.448;6.260;2023-02-24T02:27:21;19.97;;;3.30;;
19024;SDS011;9645;51.448;6.260;2023-02-24T02:30:24;21.45;;;4.00;;
19024;SDS011;9645;51.448;6.260;2023-02-24T02:33:21;10.77;;;4.15;;
19024;SDS011;9645;51.448;6.260;2023-02-24T02:36:12;12.25;;;3.80;;
19024;SDS011;9645;51.448;6.260;2023-02-24T02:38:50;14.63;;;3.75;;
19024;SDS011;9645;51.448;6.260;2023-02-24T02:41:23;15.75;;;4.07;;
19024;SDS011;9645;51.448;6.260;2023-02-24T02:43:56;22.00;;;4.35;;
19024;SDS011;9645;51.448;6.260;2023-02-24T02:46:29;20.73;;;3.95;;
19024;SDS011;9645;51.448;6.260;2023-02-24T02:49:01;14.75;;;4.43;;
19024;SDS011;9645;51.448;6.260;2023-02-24T02:51:39;20.00;;;3.88;;
19024;SDS011;9645;51.448;6.260;2023-02-24T02:54:14;13.80;;;4.13;;
19024;SDS011;9645;51.448;6.260;2023-02-24T02:56:47;16.58;;;4.20;;
19024;SDS011;9645;51.448;6.260;2023-02-24T02:59:18;24.92;;;4.68;;
19024;SDS011;9645;51.448;6.260;2023-02-24T03:01:49;26.40;;;4.88;;
19024;SDS011;9645;51.448;6.260;2023-02-24T03:04:20;35.55;;;4.90;;
19024;SDS011;9645;51.448;6.260;2023-02-24T03:06:52;19.30;;;4.40;;
19024;SDS011;9645;51.448;6.260;2023-02-24T03:09:22;21.02;;;4.72;;
19024;SDS011;9645;51.448;6.260;2023-02-24T03:11:52;18.48;;;4.88;;
19024;SDS011;9645;51.448;6.260;2023-02-24T03:14:24;15.23;;;5.10;;
19024;SDS011;9645;51.448;6.260;2023-02-24T03:16:53;38.60;;;5.25;;
19024;SDS011;9645;51.448;6.260;2023-02-24T03:19:25;17.45;;;5.10;;
19024;SDS011;9645;51.448;6.260;2023-02-24T03:21:58;21.75;;;5.43;;
19024;SDS011;9645;51.448;6.260;2023-02-24T03:24:33;21.60;;;4.70;;
19024;SDS011;9645;51.448;6.260;2023-02-24T03:27:04;16.70;;;4.93;;
19024;SDS011;9645;51.448;6.260;2023-02-24T03:29:38;29.45;;;5.47;;
19024;SDS011;9645;51.448;6.260;2023-02-24T03:32:11;29.38;;;5.05;;
19024;SDS011;9645;51.448;6.260;2023-02-24T03:34:42;18.30;;;5.22;;
19024;SDS011;9645;51.448;6.260;2023-02-24T03:37:16;23.80;;;4.80;;
19024;SDS011;9645;51.448;6.260;2023-02-24T03:39:49;17.40;;;4.88;;
19024;SDS011;9645;51.448;6.260;2023-02-24T03:42:17;23.30;;;6.50;;
19024;SDS011;9645;51.448;6.260;2023-02-24T03:44:46;21.30;;;4.43;;
19024;SDS011;9645;51.448;6.260;2023-02-24T03:47:13;18.88;;;4.70;;
19024;SDS011;9645;51.448;6.260;2023-02-24T03:49:41;18.75;;;4.72;;
19024;SDS011;9645;51.448;6.260;2023-02-24T03:52:11;15.40;;;4.55;;
19024;SDS011;9645;51.448;6.260;2023-02-24T03:55:01;18.52;;;5.03;;
19024;SDS011;9645;51.448;6.260;2023-02-24T03:57:44;38.65;;;5.70;;
19024;SDS011;9645;51.448;6.260;2023-02-24T04:00:25;40.72;;;6.00;;
19024;SDS011;9645;51.448;6.260;2023-02-24T04:03:01;18.00;;;4.68;;
19024;SDS011;9645;51.448;6.260;2023-02-24T04:05:36;25.30;;;5.93;;
19024;SDS011;9645;51.448;6.260;2023-02-24T04:08:13;33.83;;;6.05;;
19024;SDS011;9645;51.448;6.260;2023-02-24T04:10:45;33.13;;;4.97;;
19024;SDS011;9645;51.448;6.260;2023-02-24T04:13:20;37.08;;;5.95;;
19024;SDS011;9645;51.448;6.260;2023-02-24T04:15:53;16.65;;;4.85;;
19024;SDS011;9645;51.448;6.260;2023-02-24T04:18:26;16.98;;;4.63;;
19024;SDS011;9645;51.448;6.260;2023-02-24T04:20:56;28.33;;;5.68;;
19024;SDS011;9645;51.448;6.260;2023-02-24T04:23:28;15.15;;;5.43;;
19024;SDS011;9645;51.448;6.260;2023-02-24T04:25:57;27.42;;;4.80;;
19024;SDS011;9645;51.448;6.260;2023-02-24T04:28:25;24.20;;;5.57;;
19024;SDS011;9645;51.448;6.260;2023-02-24T04:30:54;23.88;;;4.85;;
19024;SDS011;9645;51.448;6.260;2023-02-24T04:33:25;28.15;;;4.97;;
19024;SDS011;9645;51.448;6.260;2023-02-24T04:35:54;22.77;;;5.43;;
19024;SDS011;9645;51.448;6.260;2023-02-24T04:38:21;24.88;;;5.15;;
19024;SDS011;9645;51.448;6.260;2023-02-24T04:40:50;21.67;;;5.45;;
19024;SDS011;9645;51.448;6.260;2023-02-24T04:43:17;18.35;;;5.95;;
19024;SDS011;9645;51.448;6.260;2023-02-24T04:45:44;36.75;;;6.05;;
19024;SDS011;9645;51.448;6.260;2023-02-24T04:48:12;18.25;;;4.97;;
19024;SDS011;9645;51.448;6.260;2023-02-24T04:50:40;29.35;;;5.57;;
19024;SDS011;9645;51.448;6.260;2023-02-24T04:53:08;21.20;;;5.10;;
19024;SDS011;9645;51.448;6.260;2023-02-24T04:55:38;20.77;;;5.57;;
19024;SDS011;9645;51.448;6.260;2023-02-24T04:58:07;19.80;;;7.00;;
19024;SDS011;9645;51.448;6.260;2023-02-24T05:00:36;23.42;;;5.80;;
19024;SDS011;9645;51.448;6.260;2023-02-24T05:03:06;34.90;;;5.93;;
19024;SDS011;9645;51.448;6.260;2023-02-24T05:05:35;15.05;;;5.07;;
19024;SDS011;9645;51.448;6.260;2023-02-24T05:08:03;21.85;;;8.80;;
19024;SDS011;9645;51.448;6.260;2023-02-24T05:10:34;12.15;;;5.60;;
19024;SDS011;9645;51.448;6.260;2023-02-24T05:13:03;12.95;;;5.28;;
19024;SDS011;9645;51.448;6.260;2023-02-24T05:15:33;16.75;;;4.28;;
19024;SDS011;9645;51.448;6.260;2023-02-24T05:18:05;43.00;;;6.28;;
19024;SDS011;9645;51.448;6.260;2023-02-24T05:20:38;17.83;;;4.65;;
19024;SDS011;9645;51.448;6.260;2023-02-24T05:23:25;39.45;;;6.25;;
19024;SDS011;9645;51.448;6.260;2023-02-24T05:25:52;30.77;;;5.68;;
19024;SDS011;9645;51.448;6.260;2023-02-24T05:28:19;13.45;;;4.97;;
19024;SDS011;9645;51.448;6.260;2023-02-24T05:30:48;17.85;;;5.80;;
19024;SDS011;9645;51.448;6.260;2023-02-24T05:33:16;12.65;;;4.78;;
19024;SDS011;9645;51.448;6.260;2023-02-24T05:35:45;20.00;;;4.35;;
19024;SDS011;9645;51.448;6.260;2023-02-24T05:38:13;17.58;;;5.40;;
19024;SDS011;9645;51.448;6.260;2023-02-24T05:40:43;15.75;;;4.10;;
19024;SDS011;9645;51.448;6.260;2023-02-24T05:43:12;19.42;;;4.20;;
19024;SDS011;9645;51.448;6.260;2023-02-24T05:45:42;10.57;;;3.33;;
19024;SDS011;9645;51.448;6.260;2023-02-24T05:48:11;18.90;;;5.28;;
19024;SDS011;9645;51.448;6.260;2023-02-24T05:50:39;13.05;;;3.22;;
19024;SDS011;9645;51.448;6.260;2023-02-24T05:53:10;16.23;;;3.72;;
19024;SDS011;9645;51.448;6.260;2023-02-24T05:55:37;21.48;;;3.92;;
19024;SDS011;9645;51.448;6.260;2023-02-24T05:58:04;14.90;;;4.07;;
19024;SDS011;9645;51.448;6.260;2023-02-24T06:00:31;17.35;;;3.80;;
19024;SDS011;9645;51.448;6.260;2023-02-24T06:03:03;10.75;;;3.15;;
19024;SDS011;9645;51.448;6.260;2023-02-24T06:05:35;7.03;;;3.10;;
19024;SDS011;9645;51.448;6.260;2023-02-24T06:08:03;21.27;;;4.57;;
19024;SDS011;9645;51.448;6.260;2023-02-24T06:10:36;23.10;;;3.33;;
19024;SDS011;9645;51.448;6.260;2023-02-24T06:13:04;7.32;;;2.30;;
19024;SDS011;9645;51.448;6.260;2023-02-24T06:15:32;7.85;;;2.35;;
19024;SDS011;9645;51.448;6.260;2023-02-24T06:17:59;14.02;;;3.15;;
19024;SDS011;9645;51.448;6.260;2023-02-24T06:20:27;15.65;;;3.25;;
19024;SDS011;9645;51.448;6.260;2023-02-24T06:22:58;18.75;;;3.28;;
19024;SDS011;9645;51.448;6.260;2023-02-24T06:25:26;10.63;;;2.75;;
19024;SDS011;9645;51.448;6.260;2023-02-24T06:27:54;10.05;;;2.63;;
19024;SDS011;9645;51.448;6.260;2023-02-24T06:30:26;14.23;;;2.58;;
19024;SDS011;9645;51.448;6.260;2023-02-24T06:32:53;10.73;;;3.15;;
19024;SDS011;9645;51.448;6.260;2023-02-24T06:35:25;8.18;;;2.70;;
19024;SDS011;9645;51.448;6.260;2023-02-24T06:37:53;7.03;;;2.60;;
19024;SDS011;9645;51.448;6.260;2023-02-24T06:40:22;14.43;;;2.85;;
19024;SDS011;9645;51.448;6.260;2023-02-24T06:42:49;7.50;;;2.67;;
19024;SDS011;9645;51.448;6.260;2023-02-24T06:45:19;8.73;;;2.30;;
19024;SDS011;9645;51.448;6.260;2023-02-24T06:47:46;10.70;;;2.35;;
19024;SDS011;9645;51.448;6.260;2023-02-24T06:50:14;14.15;;;3.03;;
19024;SDS011;9645;51.448;6.260;2023-02-24T06:52:44;7.38;;;1.90;;
19024;SDS011;9645;51.448;6.260;2023-02-24T06:55:11;8.93;;;2.42;;
19024;SDS011;9645;51.448;6.260;2023-02-24T06:57:51;10.23;;;2.35;;
19024;SDS011;9645;51.448;6.260;2023-02-24T07:00:21;9.80;;;2.65;;
19024;SDS011;9645;51.448;6.260;2023-02-24T07:03:01;14.43;;;3.03;;
19024;SDS011;9645;51.448;6.260;2023-02-24T07:05:39;8.23;;;2.97;;
19024;SDS011;9645;51.448;6.260;2023-02-24T07:08:07;9.40;;;2.72;;
19024;SDS011;9645;51.448;6.260;2023-02-24T07:10:34;5.90;;;2.67;;
19024;SDS011;9645;51.448;6.260;2023-02-24T07:13:04;12.05;;;2.38;;
19024;SDS011;9645;51.448;6.260;2023-02-24T07:15:33;10.25;;;2.58;;
19024;SDS011;9645;51.448;6.260;2023-02-24T07:18:01;9.50;;;2.53;;
19024;SDS011;9645;51.448;6.260;2023-02-24T07:20:28;8.93;;;3.22;;
19024;SDS011;9645;51.448;6.260;2023-02-24T07:22:59;24.95;;;5.40;;
19024;SDS011;9645;51.448;6.260;2023-02-24T07:25:27;13.15;;;3.22;;
19024;SDS011;9645;51.448;6.260;2023-02-24T07:27:58;21.90;;;3.63;;
19024;SDS011;9645;51.448;6.260;2023-02-24T07:30:29;28.63;;;4.43;;
19024;SDS011;9645;51.448;6.260;2023-02-24T07:32:57;18.00;;;2.60;;
19024;SDS011;9645;51.448;6.260;2023-02-24T07:35:25;11.70;;;2.30;;
19024;SDS011;9645;51.448;6.260;2023-02-24T07:37:52;14.02;;;3.00;;
19024;SDS011;9645;51.448;6.260;2023-02-24T07:40:25;8.63;;;2.42;;
19024;SDS011;9645;51.448;6.260;2023-02-24T07:42:53;10.82;;;2.83;;
19024;SDS011;9645;51.448;6.260;2023-02-24T07:45:21;7.45;;;2.55;;
19024;SDS011;9645;51.448;6.260;2023-02-24T07:47:50;16.27;;;3.60;;
19024;SDS011;9645;51.448;6.260;2023-02-24T07:50:17;10.07;;;3.35;;
19024;SDS011;9645;51.448;6.260;2023-02-24T07:52:45;11.55;;;3.63;;
19024;SDS011;9645;51.448;6.260;2023-02-24T07:55:13;8.60;;;3.20;;
19024;SDS011;9645;51.448;6.260;2023-02-24T07:57:40;19.42;;;3.30;;
19024;SDS011;9645;51.448;6.260;2023-02-24T08:00:11;9.60;;;3.10;;
19024;SDS011;9645;51.448;6.260;2023-02-24T08:02:43;10.90;;;2.85;;
19024;SDS011;9645;51.448;6.260;2023-02-24T08:05:12;25.17;;;2.65;;
19024;SDS011;9645;51.448;6.260;2023-02-24T08:07:39;9.52;;;2.30;;
19024;SDS011;9645;51.448;6.260;2023-02-24T08:10:07;6.78;;;2.70;;
19024;SDS011;9645;51.448;6.260;2023-02-24T08:12:38;12.35;;;2.50;;
19024;SDS011;9645;51.448;6.260;2023-02-24T08:15:08;7.03;;;2.40;;
19024;SDS011;9645;51.448;6.260;2023-02-24T08:17:42;8.60;;;1.98;;
19024;SDS011;9645;51.448;6.260;2023-02-24T08:20:12;14.55;;;2.10;;
19024;SDS011;9645;51.448;6.260;2023-02-24T08:22:53;11.18;;;2.70;;
19024;SDS011;9645;51.448;6.260;2023-02-24T08:25:22;16.00;;;3.03;;
19024;SDS011;9645;51.448;6.260;2023-02-24T08:27:59;12.98;;;2.75;;
19024;SDS011;9645;51.448;6.260;2023-02-24T08:30:29;17.25;;;2.40;;
19024;SDS011;9645;51.448;6.260;2023-02-24T08:33:02;16.25;;;2.30;;
19024;SDS011;9645;51.448;6.260;2023-02-24T08:35:32;22.23;;;2.70;;
19024;SDS011;9645;51.448;6.260;2023-02-24T08:38:03;8.40;;;2.40;;
19024;SDS011;9645;51.448;6.260;2023-02-24T08:40:33;6.85;;;2.10;;
19024;SDS011;9645;51.448;6.260;2023-02-24T08:43:14;14.00;;;2.60;;
19024;SDS011;9645;51.448;6.260;2023-02-24T08:45:57;7.47;;;2.20;;
19024;SDS011;9645;51.448;6.260;2023-02-24T08:48:29;15.90;;;2.30;;
19024;SDS011;9645;51.448;6.260;2023-02-24T08:51:04;15.88;;;3.00;;
19024;SDS011;9645;51.448;6.260;2023-02-24T08:53:34;22.38;;;2.72;;
19024;SDS011;9645;51.448;6.260;2023-02-24T08:56:04;12.63;;;2.33;;
19024;SDS011;9645;51.448;6.260;2023-02-24T08:58:35;4.63;;;1.90;;
19024;SDS011;9645;51.448;6.260;2023-02-24T09:01:10;4.80;;;2.35;;
19024;SDS011;9645;51.448;6.260;2023-02-24T09:03:48;12.82;;;2.88;;
19024;SDS011;9645;51.448;6.260;2023-02-24T09:06:19;14.60;;;2.20;;
19024;SDS011;9645;51.448;6.260;2023-02-24T09:08:50;9.40;;;2.35;;
19024;SDS011;9645;51.448;6.260;2023-02-24T09:11:40;11.88;;;2.40;;
19024;SDS011;9645;51.448;6.260;2023-02-24T09:14:09;11.40;;;2.40;;
19024;SDS011;9645;51.448;6.260;2023-02-24T09:16:41;18.17;;;2.42;;
19024;SDS011;9645;51.448;6.260;2023-02-24T09:19:28;11.35;;;2.45;;
19024;SDS011;9645;51.448;6.260;2023-02-24T09:22:27;8.90;;;2.13;;
19024;SDS011;9645;51.448;6.260;2023-02-24T09:25:05;13.20;;;1.90;;
19024;SDS011;9645;51.448;6.260;2023-02-24T09:27:45;8.13;;;1.73;;
19024;SDS011;9645;51.448;6.260;2023-02-24T09:30:17;15.65;;;2.08;;
19024;SDS011;9645;51.448;6.260;2023-02-24T09:33:04;12.90;;;2.45;;
19024;SDS011;9645;51.448;6.260;2023-02-24T09:35:42;5.80;;;1.70;;
19024;SDS011;9645;51.448;6.260;2023-02-24T09:38:12;10.15;;;1.88;;
19024;SDS011;9645;51.448;6.260;2023-02-24T09:40:41;21.50;;;3.67;;
19024;SDS011;9645;51.448;6.260;2023-02-24T09:43:14;7.30;;;2.13;;
19024;SDS011;9645;51.448;6.260;2023-02-24T09:45:45;6.60;;;2.20;;
19024;SDS011;9645;51.448;6.260;2023-02-24T09:48:24;9.25;;;2.38;;
19024;SDS011;9645;51.448;6.260;2023-02-24T09:51:08;5.30;;;2.42;;
19024;SDS011;9645;51.448;6.260;2023-02-24T09:53:46;17.85;;;1.77;;
19024;SDS011;9645;51.448;6.260;2023-02-24T09:56:24;17.45;;;2.58;;
19024;SDS011;9645;51.448;6.260;2023-02-24T09:58:59;13.50;;;2.30;;
19024;SDS011;9645;51.448;6.260;2023-02-24T10:01:42;13.50;;;2.67;;
19024;SDS011;9645;51.448;6.260;2023-02-24T10:04:20;13.25;;;2.80;;
19024;SDS011;9645;51.448;6.260;2023-02-24T10:07:00;8.10;;;2.17;;
19024;SDS011;9645;51.448;6.260;2023-02-24T10:09:31;10.05;;;2.80;;
19024;SDS011;9645;51.448;6.260;2023-02-24T10:12:01;5.97;;;2.60;;
19024;SDS011;9645;51.448;6.260;2023-02-24T10:14:36;12.43;;;2.60;;
19024;SDS011;9645;51.448;6.260;2023-02-24T10:17:13;12.55;;;2.80;;
19024;SDS011;9645;51.448;6.260;2023-02-24T10:19:56;5.60;;;2.50;;
19024;SDS011;9645;51.448;6.260;2023-02-24T10:22:32;14.45;;;2.47;;
19024;SDS011;9645;51.448;6.260;2023-02-24T10:25:33;8.77;;;2.42;;
19024;SDS011;9645;51.448;6.260;2023-02-24T10:28:11;40.35;;;2.60;;
19024;SDS011;9645;51.448;6.260;2023-02-24T10:30:51;16.02;;;3.58;;
19024;SDS011;9645;51.448;6.260;2023-02-24T10:33:34;8.45;;;2.90;;
19024;SDS011;9645;51.448;6.260;2023-02-24T10:36:07;13.82;;;3.15;;
19024;SDS011;9645;51.448;6.260;2023-02-24T10:38:36;12.80;;;3.58;;
19024;SDS011;9645;51.448;6.260;2023-02-24T10:41:07;10.23;;;3.08;;
19024;SDS011;9645;51.448;6.260;2023-02-24T10:43:35;20.15;;;3.95;;
19024;SDS011;9645;51.448;6.260;2023-02-24T10:46:17;11.50;;;3.53;;
19024;SDS011;9645;51.448;6.260;2023-02-24T10:48:51;16.55;;;4.45;;
19024;SDS011;9645;51.448;6.260;2023-02-24T10:51:24;5.55;;;2.67;;
19024;SDS011;9645;51.448;6.260;2023-02-24T10:54:03;14.60;;;2.95;;
19024;SDS011;9645;51.448;6.260;2023-02-24T10:57:01;16.90;;;2.80;;
19024;SDS011;9645;51.448;6.260;2023-02-24T10:59:47;13.75;;;3.30;;
19024;SDS011;9645;51.448;6.260;2023-02-24T11:02:48;11.88;;;2.80;;
19024;SDS011;9645;51.448;6.260;2023-02-24T11:05:36;24.48;;;4.10;;
19024;SDS011;9645;51.448;6.260;2023-02-24T11:08:20;12.80;;;3.15;;
19024;SDS011;9645;51.448;6.260;2023-02-24T11:11:08;14.48;;;2.65;;
19024;SDS011;9645;51.448;6.260;2023-02-24T11:13:48;16.73;;;2.53;;
19024;SDS011;9645;51.448;6.260;2023-02-24T11:16:40;9.30;;;2.55;;
19024;SDS011;9645;51.448;6.260;2023-02-24T11:19:27;12.65;;;2.85;;
19024;SDS011;9645;51.448;6.260;2023-02-24T11:21:55;18.50;;;3.38;;
19024;SDS011;9645;51.448;6.260;2023-02-24T11:24:23;10.48;;;2.88;;
19024;SDS011;9645;51.448;6.260;2023-02-24T11:26:51;11.48;;;2.40;;
19024;SDS011;9645;51.448;6.260;2023-02-24T11:29:29;19.67;;;2.95;;
19024;SDS011;9645;51.448;6.260;2023-02-24T11:32:14;7.93;;;2.72;;
19024;SDS011;9645;51.448;6.260;2023-02-24T11:35:03;23.35;;;3.60;;
19024;SDS011;9645;51.448;6.260;2023-02-24T11:37:38;23.45;;;3.38;;
19024;SDS011;9645;51.448;6.260;2023-02-24T11:40:11;14.45;;;4.22;;
19024;SDS011;9645;51.448;6.260;2023-02-24T11:42:43;15.43;;;4.05;;
19024;SDS011;9645;51.448;6.260;2023-02-24T11:45:20;21.33;;;3.83;;
19024;SDS011;9645;51.448;6.260;2023-02-24T11:47:56;7.95;;;2.72;;
19024;SDS011;9645;51.448;6.260;2023-02-24T11:50:29;6.78;;;2.92;;
19024;SDS011;9645;51.448;6.260;2023-02-24T11:53:04;24.45;;;3.50;;
19024;SDS011;9645;51.448;6.260;2023-02-24T11:55:40;26.48;;;4.60;;
19024;SDS011;9645;51.448;6.260;2023-02-24T11:58:12;15.73;;;4.10;;
19024;SDS011;9645;51.448;6.260;2023-02-24T12:00:50;15.07;;;4.10;;
19024;SDS011;9645;51.448;6.260;2023-02-24T12:03:22;13.32;;;3.58;;
19024;SDS011;9645;51.448;6.260;2023-02-24T12:05:55;10.73;;;4.22;;
19024;SDS011;9645;51.448;6.260;2023-02-24T12:08:35;17.35;;;4.90;;
19024;SDS011;9645;51.448;6.260;2023-02-24T12:11:06;18.73;;;3.60;;
19024;SDS011;9645;51.448;6.260;2023-02-24T12:13:41;14.98;;;4.70;;
19024;SDS011;9645;51.448;6.260;2023-02-24T12:16:15;18.23;;;4.45;;
19024;SDS011;9645;51.448;6.260;2023-02-24T12:18:49;10.20;;;4.30;;
19024;SDS011;9645;51.448;6.260;2023-02-24T12:21:20;18.50;;;4.30;;
19024;SDS011;9645;51.448;6.260;2023-02-24T12:23:54;19.67;;;3.88;;
19024;SDS011;9645;51.448;6.260;2023-02-24T12:26:23;17.58;;;4.68;;
19024;SDS011;9645;51.448;6.260;2023-02-24T12:29:02;26.48;;;5.28;;
19024;SDS011;9645;51.448;6.260;2023-02-24T12:31:51;21.25;;;3.92;;
19024;SDS011;9645;51.448;6.260;2023-02-24T12:34:30;10.48;;;4.30;;
19024;SDS011;9645;51.448;6.260;2023-02-24T12:37:14;14.93;;;4.70;;
19024;SDS011;9645;51.448;6.260;2023-02-24T12:39:58;15.00;;;5.57;;
19024;SDS011;9645;51.448;6.260;2023-02-24T12:42:36;18.00;;;5.97;;
19024;SDS011;9645;51.448;6.260;2023-02-24T12:45:12;13.00;;;5.65;;
19024;SDS011;9645;51.448;6.260;2023-02-24T12:47:48;19.77;;;5.35;;
19024;SDS011;9645;51.448;6.260;2023-02-24T12:50:30;27.95;;;6.97;;
19024;SDS011;9645;51.448;6.260;2023-02-24T12:53:05;26.65;;;6.03;;
19024;SDS011;9645;51.448;6.260;2023-02-24T12:55:39;56.42;;;12.45;;
19024;SDS011;9645;51.448;6.260;2023-02-24T12:58:13;33.60;;;7.93;;
19024;SDS011;9645;51.448;6.260;2023-02-24T13:00:46;56.45;;;9.80;;
19024;SDS011;9645;51.448;6.260;2023-02-24T13:03:23;25.52;;;6.18;;
19024;SDS011;9645;51.448;6.260;2023-02-24T13:06:01;15.05;;;5.85;;
19024;SDS011;9645;51.448;6.260;2023-02-24T13:08:37;15.55;;;6.05;;
19024;SDS011;9645;51.448;6.260;2023-02-24T13:11:15;21.60;;;7.03;;
19024;SDS011;9645;51.448;6.260;2023-02-24T13:13:50;15.85;;;6.20;;
19024;SDS011;9645;51.448;6.260;2023-02-24T13:16:26;17.83;;;7.38;;
19024;SDS011;9645;51.448;6.260;2023-02-24T13:19:04;18.33;;;7.22;;
19024;SDS011;9645;51.448;6.260;2023-02-24T13:21:32;22.45;;;7.97;;
19024;SDS011;9645;51.448;6.260;2023-02-24T13:24:00;20.55;;;7.68;;
19024;SDS011;9645;51.448;6.260;2023-02-24T13:26:28;20.27;;;7.65;;
19024;SDS011;9645;51.448;6.260;2023-02-24T13:28:57;22.40;;;7.70;;
19024;SDS011;9645;51.448;6.260;2023-02-24T13:31:26;18.58;;;8.40;;
19024;SDS011;9645;51.448;6.260;2023-02-24T13:34:12;27.48;;;8.20;;
19024;SDS011;9645;51.448;6.260;2023-02-24T13:36:55;28.75;;;8.63;;
19024;SDS011;9645;51.448;6.260;2023-02-24T13:39:23;22.30;;;9.50;;
19024;SDS011;9645;51.448;6.260;2023-02-24T13:42:00;23.77;;;8.63;;
19024;SDS011;9645;51.448;6.260;2023-02-24T13:44:28;25.70;;;8.25;;
19024;SDS011;9645;51.448;6.260;2023-02-24T13:47:04;22.40;;;8.47;;
19024;SDS011;9645;51.448;6.260;2023-02-24T13:49:56;19.73;;;8.68;;
19024;SDS011;9645;51.448;6.260;2023-02-24T13:52:37;20.65;;;7.20;;
19024;SDS011;9645;51.448;6.260;2023-02-24T13:55:17;24.63;;;10.05;;
19024;SDS011;9645;51.448;6.260;2023-02-24T13:58:05;26.48;;;7.95;;
19024;SDS011;9645;51.448;6.260;2023-02-24T14:00:49;16.52;;;7.97;;
19024;SDS011;9645;51.448;6.260;2023-02-24T14:03:27;17.42;;;7.22;;
19024;SDS011;9645;51.448;6.260;2023-02-24T14:05:56;24.30;;;8.02;;
19024;SDS011;9645;51.448;6.260;2023-02-24T14:08:27;28.55;;;10.05;;
19024;SDS011;9645;51.448;6.260;2023-02-24T14:11:01;18.02;;;6.90;;
19024;SDS011;9645;51.448;6.260;2023-02-24T14:13:29;25.02;;;8.95;;
19024;SDS011;9645;51.448;6.260;2023-02-24T14:15:58;38.83;;;9.25;;
19024;SDS011;9645;51.448;6.260;2023-02-24T14:18:30;21.38;;;8.00;;
19024;SDS011;9645;51.448;6.260;2023-02-24T14:20:58;19.67;;;7.55;;
19024;SDS011;9645;51.448;6.260;2023-02-24T14:23:26;30.10;;;8.15;;
19024;SDS011;9645;51.448;6.260;2023-02-24T14:25:56;29.90;;;9.38;;
19024;SDS011;9645;51.448;6.260;2023-02-24T14:28:26;20.38;;;8.20;;
19024;SDS011;9645;51.448;6.260;2023-02-24T14:30:56;20.50;;;8.93;;
19024;SDS011;9645;51.448;6.260;2023-02-24T14:33:27;27.92;;;9.98;;
19024;SDS011;9645;51.448;6.260;2023-02-24T14:35:56;32.00;;;8.35;;
19024;SDS011;9645;51.448;6.260;2023-02-24T14:38:27;17.65;;;7.43;;
19024;SDS011;9645;51.448;6.260;2023-02-24T14:40:55;18.67;;;7.75;;
19024;SDS011;9645;51.448;6.260;2023-02-24T14:43:22;30.42;;;11.77;;
19024;SDS011;9645;51.448;6.260;2023-02-24T14:45:50;28.30;;;12.00;;
19024;SDS011;9645;51.448;6.260;2023-02-24T14:48:19;23.52;;;7.40;;
19024;SDS011;9645;51.448;6.260;2023-02-24T14:50:50;15.07;;;6.80;;
19024;SDS011;9645;51.448;6.260;2023-02-24T14:53:19;16.35;;;6.57;;
19024;SDS011;9645;51.448;6.260;2023-02-24T14:55:51;23.30;;;8.13;;
19024;SDS011;9645;51.448;6.260;2023-02-24T14:58:22;17.65;;;6.40;;
19024;SDS011;9645;51.448;6.260;2023-02-24T15:00:54;16.80;;;6.38;;
19024;SDS011;9645;51.448;6.260;2023-02-24T15:03:25;11.63;;;6.00;;
19024;SDS011;9645;51.448;6.260;2023-02-24T15:05:55;9.77;;;4.95;;
19024;SDS011;9645;51.448;6.260;2023-02-24T15:08:28;15.23;;;6.60;;
19024;SDS011;9645;51.448;6.260;2023-02-24T15:11:04;16.50;;;6.82;;
19024;SDS011;9645;51.448;6.260;2023-02-24T15:13:43;18.73;;;6.72;;
19024;SDS011;9645;51.448;6.260;2023-02-24T15:16:13;13.55;;;6.47;;
19024;SDS011;9645;51.448;6.260;2023-02-24T15:18:48;21.15;;;7.00;;
19024;SDS011;9645;51.448;6.260;2023-02-24T15:21:20;11.75;;;6.30;;
19024;SDS011;9645;51.448;6.260;2023-02-24T15:23:56;20.17;;;6.47;;
19024;SDS011;9645;51.448;6.260;2023-02-24T15:26:25;12.55;;;6.50;;